sensor_id;sensor_type;location;lat;lon;timestamp;pressure;altitude;pressure_sealevel;temperature;humidity
50852;BME280;43953;45.508;-122.806;2023-09-08T00:00:24;100768.91;;;24.09;43.53
50852;BME280;43953;45.508;-122.806;2023-09-08T00:00:57;100768.91;;;24.09;43.52
50852;BME280;43953;45.508;-122.806;2023-09-08T00:01:28;100759.81;;;24.09;43.49
50852;BME280;43953;45.508;-122.806;2023-09-08T00:02:00;100772.78;;;24.08;43.35
50852;BME280;43953;45.508;-122.806;2023-09-08T00:02:32;100761.75;;;24.08;43.13
50852;BME280;43953;45.508;-122.806;2023-09-08T00:03:03;100766.13;;;24.09;43.10
50852;BME280;43953;45.508;-122.806;2023-09-08T00:03:35;100762.59;;;24.09;43.06
50852;BME280;43953;45.508;-122.806;2023-09-08T00:04:07;100765.00;;;24.10;42.94
50852;BME280;43953;45.508;-122.806;2023-09-08T00:04:39;100765.34;;;24.09;42.88
50852;BME280;43953;45.508;-122.806;2023-09-08T00:05:10;100768.91;;;24.09;42.92
50852;BME280;43953;45.508;-122.806;2023-09-08T00:05:42;100770.84;;;24.09;43.03
50852;BME280;43953;45.508;-122.806;2023-09-08T00:06:14;100772.44;;;24.10;42.86
50852;BME280;43953;45.508;-122.806;2023-09-08T00:06:45;100766.13;;;24.09;43.05
50852;BME280;43953;45.508;-122.806;2023-09-08T00:07:17;100764.53;;;24.08;42.64
50852;BME280;43953;45.508;-122.806;2023-09-08T00:07:49;100766.44;;;24.07;42.00
50852;BME280;43953;45.508;-122.806;2023-09-08T00:08:21;100766.13;;;24.09;42.18
50852;BME280;43953;45.508;-122.806;2023-09-08T00:08:55;100764.53;;;24.08;42.71
50852;BME280;43953;45.508;-122.806;2023-09-08T00:09:27;100762.78;;;24.12;42.36
50852;BME280;43953;45.508;-122.806;2023-09-08T00:09:58;100768.00;;;24.14;42.92
50852;BME280;43953;45.508;-122.806;2023-09-08T00:10:30;100764.94;;;24.15;42.93
50852;BME280;43953;45.508;-122.806;2023-09-08T00:11:02;100765.16;;;24.19;43.02
50852;BME280;43953;45.508;-122.806;2023-09-08T00:11:34;100766.81;;;24.20;42.81
50852;BME280;43953;45.508;-122.806;2023-09-08T00:12:06;100765.69;;;24.21;42.07
50852;BME280;43953;45.508;-122.806;2023-09-08T00:12:38;100766.22;;;24.23;42.66
50852;BME280;43953;45.508;-122.806;2023-09-08T00:13:10;100759.59;;;24.24;42.66
50852;BME280;43953;45.508;-122.806;2023-09-08T00:13:44;100769.47;;;24.25;41.88
50852;BME280;43953;45.508;-122.806;2023-09-08T00:14:17;100760.94;;;24.26;42.50
50852;BME280;43953;45.508;-122.806;2023-09-08T00:14:49;100763.34;;;24.28;42.47
50852;BME280;43953;45.508;-122.806;2023-09-08T00:15:20;100763.34;;;24.28;42.31
50852;BME280;43953;45.508;-122.806;2023-09-08T00:15:52;100766.63;;;24.30;42.58
50852;BME280;43953;45.508;-122.806;2023-09-08T00:16:24;100764.69;;;24.30;42.43
50852;BME280;43953;45.508;-122.806;2023-09-08T00:16:55;100760.00;;;24.31;42.62
50852;BME280;43953;45.508;-122.806;2023-09-08T00:17:27;100767.97;;;24.33;42.44
50852;BME280;43953;45.508;-122.806;2023-09-08T00:17:59;100761.66;;;24.32;42.62
50852;BME280;43953;45.508;-122.806;2023-09-08T00:18:30;100766.03;;;24.33;42.41
50852;BME280;43953;45.508;-122.806;2023-09-08T00:19:02;100759.72;;;24.33;41.96
50852;BME280;43953;45.508;-122.806;2023-09-08T00:19:34;100761.66;;;24.32;41.87
50852;BME280;43953;45.508;-122.806;2023-09-08T00:20:06;100760.31;;;24.29;41.63
50852;BME280;43953;45.508;-122.806;2023-09-08T00:20:41;100766.63;;;24.30;41.30
50852;BME280;43953;45.508;-122.806;2023-09-08T00:21:13;100761.13;;;24.30;41.19
50852;BME280;43953;45.508;-122.806;2023-09-08T00:21:44;100761.94;;;24.30;41.46
50852;BME280;43953;45.508;-122.806;2023-09-08T00:22:16;100760.31;;;24.29;41.25
50852;BME280;43953;45.508;-122.806;2023-09-08T00:22:48;100759.50;;;24.29;41.57
50852;BME280;43953;45.508;-122.806;2023-09-08T00:23:19;100758.97;;;24.27;40.91
50852;BME280;43953;45.508;-122.806;2023-09-08T00:23:52;100767.25;;;24.27;41.14
50852;BME280;43953;45.508;-122.806;2023-09-08T00:24:24;100758.97;;;24.27;40.92
50852;BME280;43953;45.508;-122.806;2023-09-08T00:24:56;100765.63;;;24.26;40.70
50852;BME280;43953;45.508;-122.806;2023-09-08T00:25:27;100757.34;;;24.26;40.96
50852;BME280;43953;45.508;-122.806;2023-09-08T00:25:59;100757.34;;;24.26;41.00
50852;BME280;43953;45.508;-122.806;2023-09-08T00:26:31;100760.94;;;24.26;41.20
50852;BME280;43953;45.508;-122.806;2023-09-08T00:27:03;100758.19;;;24.26;41.23
50852;BME280;43953;45.508;-122.806;2023-09-08T00:27:35;100758.47;;;24.25;40.89
50852;BME280;43953;45.508;-122.806;2023-09-08T00:28:07;100761.22;;;24.25;40.96
50852;BME280;43953;45.508;-122.806;2023-09-08T00:28:39;100759.31;;;24.25;41.23
50852;BME280;43953;45.508;-122.806;2023-09-08T00:29:10;100764.81;;;24.25;40.99
50852;BME280;43953;45.508;-122.806;2023-09-08T00:29:42;100762.88;;;24.26;41.11
50852;BME280;43953;45.508;-122.806;2023-09-08T00:30:14;100757.34;;;24.26;40.96
50852;BME280;43953;45.508;-122.806;2023-09-08T00:30:45;100765.63;;;24.26;40.99
50852;BME280;43953;45.508;-122.806;2023-09-08T00:31:17;100762.06;;;24.25;41.22
50852;BME280;43953;45.508;-122.806;2023-09-08T00:31:49;100764.81;;;24.25;40.88
50852;BME280;43953;45.508;-122.806;2023-09-08T00:32:20;100758.47;;;24.25;41.36
50852;BME280;43953;45.508;-122.806;2023-09-08T00:32:52;100769.47;;;24.25;41.33
50852;BME280;43953;45.508;-122.806;2023-09-08T00:33:24;100768.66;;;24.24;41.27
50852;BME280;43953;45.508;-122.806;2023-09-08T00:33:55;100764.81;;;24.25;40.99
50852;BME280;43953;45.508;-122.806;2023-09-08T00:34:27;100762.06;;;24.25;41.08
50852;BME280;43953;45.508;-122.806;2023-09-08T00:34:59;100756.84;;;24.24;41.13
50852;BME280;43953;45.508;-122.806;2023-09-08T00:35:30;100767.84;;;24.24;41.27
50852;BME280;43953;45.508;-122.806;2023-09-08T00:36:03;100768.66;;;24.24;41.48
50852;BME280;43953;45.508;-122.806;2023-09-08T00:36:36;100773.88;;;24.26;42.06
50852;BME280;43953;45.508;-122.806;2023-09-08T00:37:07;100772.75;;;24.27;42.32
50852;BME280;43953;45.508;-122.806;2023-09-08T00:37:41;100770.53;;;24.29;42.45
50852;BME280;43953;45.508;-122.806;2023-09-08T00:38:12;100770.19;;;24.30;42.58
50852;BME280;43953;45.508;-122.806;2023-09-08T00:38:44;100772.66;;;24.32;42.66
50852;BME280;43953;45.508;-122.806;2023-09-08T00:39:16;100773.16;;;24.34;42.70
50852;BME280;43953;45.508;-122.806;2023-09-08T00:39:47;100772.06;;;24.35;42.72
50852;BME280;43953;45.508;-122.806;2023-09-08T00:40:19;100770.94;;;24.36;42.74
50852;BME280;43953;45.508;-122.806;2023-09-08T00:40:50;100769.81;;;24.37;42.89
50852;BME280;43953;45.508;-122.806;2023-09-08T00:41:22;100774.22;;;24.38;42.98
50852;BME280;43953;45.508;-122.806;2023-09-08T00:41:54;100766.50;;;24.40;42.90
50852;BME280;43953;45.508;-122.806;2023-09-08T00:42:26;100778.31;;;24.41;43.01
50852;BME280;43953;45.508;-122.806;2023-09-08T00:42:58;100770.88;;;24.41;42.86
50852;BME280;43953;45.508;-122.806;2023-09-08T00:43:30;100770.59;;;24.43;42.95
50852;BME280;43953;45.508;-122.806;2023-09-08T00:44:01;100769.78;;;24.42;42.74
50852;BME280;43953;45.508;-122.806;2023-09-08T00:44:34;100772.22;;;24.44;42.87
50852;BME280;43953;45.508;-122.806;2023-09-08T00:45:06;100765.91;;;24.43;42.91
50852;BME280;43953;45.508;-122.806;2023-09-08T00:45:41;100762.03;;;24.44;42.81
50852;BME280;43953;45.508;-122.806;2023-09-08T00:46:13;100768.34;;;24.45;43.10
50852;BME280;43953;45.508;-122.806;2023-09-08T00:46:45;100772.72;;;24.46;43.17
50852;BME280;43953;45.508;-122.806;2023-09-08T00:47:17;100769.16;;;24.45;43.21
50852;BME280;43953;45.508;-122.806;2023-09-08T00:47:49;100762.84;;;24.45;43.28
50852;BME280;43953;45.508;-122.806;2023-09-08T00:48:21;100765.91;;;24.43;43.06
50852;BME280;43953;45.508;-122.806;2023-09-08T00:48:53;100770.59;;;24.43;43.33
50852;BME280;43953;45.508;-122.806;2023-09-08T00:49:25;100767.31;;;24.41;43.34
50852;BME280;43953;45.508;-122.806;2023-09-08T00:49:57;100774.75;;;24.40;43.11
50852;BME280;43953;45.508;-122.806;2023-09-08T00:50:29;100769.53;;;24.39;43.21
50852;BME280;43953;45.508;-122.806;2023-09-08T00:51:01;100767.06;;;24.37;43.17
50852;BME280;43953;45.508;-122.806;2023-09-08T00:51:33;100774.22;;;24.38;43.29
50852;BME280;43953;45.508;-122.806;2023-09-08T00:52:06;100771.75;;;24.37;43.34
50852;BME280;43953;45.508;-122.806;2023-09-08T00:52:37;100774.22;;;24.38;43.14
50852;BME280;43953;45.508;-122.806;2023-09-08T00:53:09;100774.22;;;24.38;43.13
50852;BME280;43953;45.508;-122.806;2023-09-08T00:53:41;100771.16;;;24.40;43.24
50852;BME280;43953;45.508;-122.806;2023-09-08T00:54:14;100770.34;;;24.39;42.84
50852;BME280;43953;45.508;-122.806;2023-09-08T00:54:46;100777.50;;;24.40;42.98
50852;BME280;43953;45.508;-122.806;2023-09-08T00:55:18;100771.16;;;24.40;43.20
50852;BME280;43953;45.508;-122.806;2023-09-08T00:55:50;100774.22;;;24.38;43.48
50852;BME280;43953;45.508;-122.806;2023-09-08T00:56:23;100776.16;;;24.38;43.45
50852;BME280;43953;45.508;-122.806;2023-09-08T00:56:56;100772.56;;;24.37;43.04
50852;BME280;43953;45.508;-122.806;2023-09-08T00:57:28;100772.88;;;24.36;43.17
50852;BME280;43953;45.508;-122.806;2023-09-08T00:58:01;100776.97;;;24.38;43.21
50852;BME280;43953;45.508;-122.806;2023-09-08T00:58:33;100776.97;;;24.38;43.27
50852;BME280;43953;45.508;-122.806;2023-09-08T00:59:05;100773.09;;;24.39;43.39
50852;BME280;43953;45.508;-122.806;2023-09-08T00:59:37;100776.66;;;24.40;43.31
50852;BME280;43953;45.508;-122.806;2023-09-08T01:00:10;100780.78;;;24.42;43.25
50852;BME280;43953;45.508;-122.806;2023-09-08T01:00:42;100776.94;;;24.43;43.44
50852;BME280;43953;45.508;-122.806;2023-09-08T01:01:15;100782.44;;;24.43;43.40
50852;BME280;43953;45.508;-122.806;2023-09-08T01:01:48;100776.94;;;24.43;43.54
50852;BME280;43953;45.508;-122.806;2023-09-08T01:02:20;100775.28;;;24.42;43.39
50852;BME280;43953;45.508;-122.806;2023-09-08T01:02:53;100775.28;;;24.42;43.09
50852;BME280;43953;45.508;-122.806;2023-09-08T01:03:25;100778.56;;;24.44;43.69
50852;BME280;43953;45.508;-122.806;2023-09-08T01:03:57;100777.13;;;24.47;43.37
50852;BME280;43953;45.508;-122.806;2023-09-08T01:04:29;100776.81;;;24.48;43.30
50852;BME280;43953;45.508;-122.806;2023-09-08T01:05:01;100777.34;;;24.50;43.40
50852;BME280;43953;45.508;-122.806;2023-09-08T01:05:32;100769.09;;;24.50;43.54
50852;BME280;43953;45.508;-122.806;2023-09-08T01:06:06;100775.13;;;24.52;43.25
50852;BME280;43953;45.508;-122.806;2023-09-08T01:06:38;100777.56;;;24.54;43.46
50852;BME280;43953;45.508;-122.806;2023-09-08T01:07:10;100776.47;;;24.55;43.37
50852;BME280;43953;45.508;-122.806;2023-09-08T01:07:43;100776.47;;;24.55;43.20
50852;BME280;43953;45.508;-122.806;2023-09-08T01:08:16;100771.44;;;24.57;43.30
50852;BME280;43953;45.508;-122.806;2023-09-08T01:08:48;100777.75;;;24.58;43.58
50852;BME280;43953;45.508;-122.806;2023-09-08T01:09:21;100776.66;;;24.59;43.63
50852;BME280;43953;45.508;-122.806;2023-09-08T01:09:54;100781.84;;;24.60;43.65
50852;BME280;43953;45.508;-122.806;2023-09-08T01:10:27;100770.03;;;24.60;43.45
50852;BME280;43953;45.508;-122.806;2023-09-08T01:10:58;100782.66;;;24.61;43.68
50852;BME280;43953;45.508;-122.806;2023-09-08T01:11:30;100783.50;;;24.61;43.48
50852;BME280;43953;45.508;-122.806;2023-09-08T01:12:06;100779.91;;;24.61;43.53
50852;BME280;43953;45.508;-122.806;2023-09-08T01:12:39;100779.91;;;24.61;42.75
50852;BME280;43953;45.508;-122.806;2023-09-08T01:13:10;100785.13;;;24.62;42.90
50852;BME280;43953;45.508;-122.806;2023-09-08T01:13:43;100785.13;;;24.62;43.45
50852;BME280;43953;45.508;-122.806;2023-09-08T01:14:18;100784.31;;;24.62;43.42
50852;BME280;43953;45.508;-122.806;2023-09-08T01:14:51;100784.81;;;24.64;43.49
50852;BME280;43953;45.508;-122.806;2023-09-08T01:15:22;100789.22;;;24.65;43.60
50852;BME280;43953;45.508;-122.806;2023-09-08T01:15:54;100787.28;;;24.65;43.74
50852;BME280;43953;45.508;-122.806;2023-09-08T01:16:26;100784.81;;;24.64;43.76
50852;BME280;43953;45.508;-122.806;2023-09-08T01:16:57;100790.03;;;24.65;43.88
50852;BME280;43953;45.508;-122.806;2023-09-08T01:17:29;100787.00;;;24.67;43.81
50852;BME280;43953;45.508;-122.806;2023-09-08T01:18:01;100787.81;;;24.67;43.92
50852;BME280;43953;45.508;-122.806;2023-09-08T01:18:32;100788.63;;;24.68;43.79
50852;BME280;43953;45.508;-122.806;2023-09-08T01:19:07;100791.91;;;24.70;43.81
50852;BME280;43953;45.508;-122.806;2023-09-08T01:19:43;100789.94;;;24.70;44.16
50852;BME280;43953;45.508;-122.806;2023-09-08T01:20:22;100788.53;;;24.73;43.78
50852;BME280;43953;45.508;-122.806;2023-09-08T01:23:56;100785.38;;;24.80;44.24
50852;BME280;43953;45.508;-122.806;2023-09-08T01:25:55;100792.13;;;24.87;44.74
50852;BME280;43953;45.508;-122.806;2023-09-08T01:26:31;100792.94;;;24.88;44.87
50852;BME280;43953;45.508;-122.806;2023-09-08T01:27:07;100792.94;;;24.88;44.55
50852;BME280;43953;45.508;-122.806;2023-09-08T01:27:45;100787.44;;;24.88;45.03
50852;BME280;43953;45.508;-122.806;2023-09-08T01:28:19;100787.44;;;24.88;45.10
50852;BME280;43953;45.508;-122.806;2023-09-08T01:28:53;100792.13;;;24.87;44.88
50852;BME280;43953;45.508;-122.806;2023-09-08T01:29:26;100790.50;;;24.86;45.00
50852;BME280;43953;45.508;-122.806;2023-09-08T01:30:01;100794.38;;;24.85;45.02
50852;BME280;43953;45.508;-122.806;2023-09-08T01:30:33;100785.59;;;24.83;45.14
50852;BME280;43953;45.508;-122.806;2023-09-08T01:31:05;100797.41;;;24.84;45.10
50852;BME280;43953;45.508;-122.806;2023-09-08T01:31:37;100791.91;;;24.84;45.19
50852;BME280;43953;45.508;-122.806;2023-09-08T01:32:10;100789.47;;;24.82;44.73
50852;BME280;43953;45.508;-122.806;2023-09-08T01:32:42;100785.06;;;24.81;44.97
50852;BME280;43953;45.508;-122.806;2023-09-08T01:33:16;100795.59;;;24.79;44.93
50852;BME280;43953;45.508;-122.806;2023-09-08T01:33:48;100795.59;;;24.79;45.00
50852;BME280;43953;45.508;-122.806;2023-09-08T01:34:20;100786.00;;;24.77;45.09
50852;BME280;43953;45.508;-122.806;2023-09-08T01:34:52;100791.78;;;24.75;44.96
50852;BME280;43953;45.508;-122.806;2023-09-08T01:35:25;100792.91;;;24.74;44.83
50852;BME280;43953;45.508;-122.806;2023-09-08T01:35:56;100797.59;;;24.73;45.11
50852;BME280;43953;45.508;-122.806;2023-09-08T01:36:28;100791.56;;;24.71;45.10
50852;BME280;43953;45.508;-122.806;2023-09-08T01:37:00;100799.03;;;24.71;45.36
50852;BME280;43953;45.508;-122.806;2023-09-08T01:37:35;100791.91;;;24.70;44.75
50852;BME280;43953;45.508;-122.806;2023-09-08T01:38:07;100791.38;;;24.68;44.77
50852;BME280;43953;45.508;-122.806;2023-09-08T01:38:39;100794.13;;;24.68;45.33
50852;BME280;43953;45.508;-122.806;2023-09-08T01:39:10;100794.13;;;24.68;45.22
50852;BME280;43953;45.508;-122.806;2023-09-08T01:39:42;100794.66;;;24.70;45.34
50852;BME280;43953;45.508;-122.806;2023-09-08T01:40:14;100791.56;;;24.71;45.19
50852;BME280;43953;45.508;-122.806;2023-09-08T01:40:46;100795.94;;;24.72;45.16
50852;BME280;43953;45.508;-122.806;2023-09-08T01:41:17;100798.09;;;24.75;45.26
50852;BME280;43953;45.508;-122.806;2023-09-08T01:41:49;100790.69;;;24.76;45.49
50852;BME280;43953;45.508;-122.806;2023-09-08T01:42:21;100799.44;;;24.78;45.15
50852;BME280;43953;45.508;-122.806;2023-09-08T01:42:53;100787.31;;;24.79;45.20
50852;BME280;43953;45.508;-122.806;2023-09-08T01:43:24;100789.47;;;24.82;44.92
50852;BME280;43953;45.508;-122.806;2023-09-08T01:43:56;100788.34;;;24.83;45.03
50852;BME280;43953;45.508;-122.806;2023-09-08T01:44:29;100793.56;;;24.85;45.07
50852;BME280;43953;45.508;-122.806;2023-09-08T01:45:00;100794.38;;;24.85;44.90
50852;BME280;43953;45.508;-122.806;2023-09-08T01:45:32;100790.50;;;24.86;45.10
50852;BME280;43953;45.508;-122.806;2023-09-08T01:46:04;100789.34;;;24.87;45.08
50852;BME280;43953;45.508;-122.806;2023-09-08T01:46:35;100794.56;;;24.89;45.07
50852;BME280;43953;45.508;-122.806;2023-09-08T01:47:07;100791.81;;;24.89;45.31
50852;BME280;43953;45.508;-122.806;2023-09-08T01:47:39;100795.38;;;24.89;45.34
50852;BME280;43953;45.508;-122.806;2023-09-08T01:48:10;100787.94;;;24.90;45.29
50852;BME280;43953;45.508;-122.806;2023-09-08T01:48:42;100794.25;;;24.90;45.42
50852;BME280;43953;45.508;-122.806;2023-09-08T01:49:14;100794.25;;;24.90;45.69
50852;BME280;43953;45.508;-122.806;2023-09-08T01:49:45;100791.50;;;24.90;45.92
50852;BME280;43953;45.508;-122.806;2023-09-08T01:50:17;100800.59;;;24.91;45.63
50852;BME280;43953;45.508;-122.806;2023-09-08T01:50:53;100793.16;;;24.91;45.43
50852;BME280;43953;45.508;-122.806;2023-09-08T01:51:25;100798.66;;;24.91;45.66
50852;BME280;43953;45.508;-122.806;2023-09-08T01:51:56;100799.47;;;24.92;45.12
50852;BME280;43953;45.508;-122.806;2023-09-08T01:52:28;100800.28;;;24.92;45.06
50852;BME280;43953;45.508;-122.806;2023-09-08T01:53:00;100793.97;;;24.92;44.93
50852;BME280;43953;45.508;-122.806;2023-09-08T01:53:31;100798.66;;;24.91;44.97
50852;BME280;43953;45.508;-122.806;2023-09-08T01:54:03;100794.25;;;24.90;44.77
50852;BME280;43953;45.508;-122.806;2023-09-08T01:54:35;100806.41;;;24.89;44.48
50852;BME280;43953;45.508;-122.806;2023-09-08T01:55:07;100793.25;;;24.86;44.27
50852;BME280;43953;45.508;-122.806;2023-09-08T01:55:39;100799.88;;;24.85;44.37
50852;BME280;43953;45.508;-122.806;2023-09-08T01:56:10;100802.09;;;24.83;44.69
50852;BME280;43953;45.508;-122.806;2023-09-08T01:56:42;100805.69;;;24.84;45.01
50852;BME280;43953;45.508;-122.806;2023-09-08T01:57:14;100809.03;;;24.81;44.09
50852;BME280;43953;45.508;-122.806;2023-09-08T01:57:45;100802.19;;;24.78;43.47
50852;BME280;43953;45.508;-122.806;2023-09-08T01:58:17;100803.31;;;24.77;43.70
50852;BME280;43953;45.508;-122.806;2023-09-08T01:58:49;100805.56;;;24.75;43.81
50852;BME280;43953;45.508;-122.806;2023-09-08T01:59:21;100810.56;;;24.73;43.96
50852;BME280;43953;45.508;-122.806;2023-09-08T01:59:52;100815.22;;;24.72;44.03
50852;BME280;43953;45.508;-122.806;2023-09-08T02:00:24;100810.03;;;24.71;44.16
50852;BME280;43953;45.508;-122.806;2023-09-08T02:00:56;100805.13;;;24.68;44.16
50852;BME280;43953;45.508;-122.806;2023-09-08T02:01:32;100812.25;;;24.69;44.96
50852;BME280;43953;45.508;-122.806;2023-09-08T02:02:04;100808.41;;;24.70;45.11
50852;BME280;43953;45.508;-122.806;2023-09-08T02:02:35;100808.41;;;24.70;44.10
50852;BME280;43953;45.508;-122.806;2023-09-08T02:03:07;100804.53;;;24.71;44.58
50852;BME280;43953;45.508;-122.806;2023-09-08T02:03:39;100812.78;;;24.71;44.13
50852;BME280;43953;45.508;-122.806;2023-09-08T02:04:10;100807.56;;;24.69;44.23
50852;BME280;43953;45.508;-122.806;2023-09-08T02:04:42;100799.63;;;24.68;44.08
50852;BME280;43953;45.508;-122.806;2023-09-08T02:05:14;100809.00;;;24.67;43.38
50852;BME280;43953;45.508;-122.806;2023-09-08T02:05:46;100809.00;;;24.67;44.28
50852;BME280;43953;45.508;-122.806;2023-09-08T02:06:18;100805.13;;;24.68;44.46
50852;BME280;43953;45.508;-122.806;2023-09-08T02:06:49;100805.94;;;24.68;44.60
50852;BME280;43953;45.508;-122.806;2023-09-08T02:07:21;100815.03;;;24.69;44.59
50852;BME280;43953;45.508;-122.806;2023-09-08T02:07:53;100813.06;;;24.69;43.90
50852;BME280;43953;45.508;-122.806;2023-09-08T02:08:26;100811.97;;;24.70;44.76
50852;BME280;43953;45.508;-122.806;2023-09-08T02:08:58;100802.59;;;24.71;45.34
50852;BME280;43953;45.508;-122.806;2023-09-08T02:09:35;100812.47;;;24.72;45.23
50852;BME280;43953;45.508;-122.806;2023-09-08T02:10:07;100809.44;;;24.74;45.26
50852;BME280;43953;45.508;-122.806;2023-09-08T02:10:41;100812.72;;;24.76;44.96
50852;BME280;43953;45.508;-122.806;2023-09-08T02:11:13;100810.44;;;24.78;45.11
50852;BME280;43953;45.508;-122.806;2023-09-08T02:11:45;100813.72;;;24.80;45.14
50852;BME280;43953;45.508;-122.806;2023-09-08T02:12:16;100808.22;;;24.80;45.20
50852;BME280;43953;45.508;-122.806;2023-09-08T02:12:48;100812.00;;;24.84;45.15
50852;BME280;43953;45.508;-122.806;2023-09-08T02:13:20;100816.41;;;24.85;44.73
50852;BME280;43953;45.508;-122.806;2023-09-08T02:13:52;100816.41;;;24.85;45.08
50852;BME280;43953;45.508;-122.806;2023-09-08T02:14:23;100811.72;;;24.86;45.25
50852;BME280;43953;45.508;-122.806;2023-09-08T02:14:55;100816.09;;;24.87;45.00
50852;BME280;43953;45.508;-122.806;2023-09-08T02:15:27;100816.59;;;24.89;45.20
50852;BME280;43953;45.508;-122.806;2023-09-08T02:15:59;100815.78;;;24.88;45.23
50852;BME280;43953;45.508;-122.806;2023-09-08T02:16:30;100811.09;;;24.89;45.09
50852;BME280;43953;45.508;-122.806;2023-09-08T02:17:02;100814.66;;;24.89;45.06
50852;BME280;43953;45.508;-122.806;2023-09-08T02:17:34;100812.72;;;24.90;45.34
50852;BME280;43953;45.508;-122.806;2023-09-08T02:18:07;100813.53;;;24.90;45.35
50852;BME280;43953;45.508;-122.806;2023-09-08T02:18:38;100817.13;;;24.91;44.97
50852;BME280;43953;45.508;-122.806;2023-09-08T02:19:10;100812.44;;;24.91;44.77
50852;BME280;43953;45.508;-122.806;2023-09-08T02:19:42;100817.13;;;24.91;44.82
50852;BME280;43953;45.508;-122.806;2023-09-08T02:20:13;100819.03;;;24.90;45.23
50852;BME280;43953;45.508;-122.806;2023-09-08T02:20:45;100813.53;;;24.90;44.71
50852;BME280;43953;45.508;-122.806;2023-09-08T02:21:17;100816.59;;;24.89;45.50
50852;BME280;43953;45.508;-122.806;2023-09-08T02:21:48;100816.91;;;24.87;45.31
50852;BME280;43953;45.508;-122.806;2023-09-08T02:22:20;100814.47;;;24.86;43.77
50852;BME280;43953;45.508;-122.806;2023-09-08T02:22:54;100818.63;;;24.83;44.96
50852;BME280;43953;45.508;-122.806;2023-09-08T02:23:26;100816.41;;;24.85;45.23
50852;BME280;43953;45.508;-122.806;2023-09-08T02:23:57;100819.44;;;24.84;45.49
50852;BME280;43953;45.508;-122.806;2023-09-08T02:24:29;100817.00;;;24.82;44.37
50852;BME280;43953;45.508;-122.806;2023-09-08T02:25:01;100817.28;;;24.81;44.39
50852;BME280;43953;45.508;-122.806;2023-09-08T02:25:32;100822.28;;;24.79;44.32
50852;BME280;43953;45.508;-122.806;2023-09-08T02:26:04;100819.84;;;24.77;44.34
50852;BME280;43953;45.508;-122.806;2023-09-08T02:26:37;100818.22;;;24.76;44.89
50852;BME280;43953;45.508;-122.806;2023-09-08T02:27:09;100819.31;;;24.75;44.99
50852;BME280;43953;45.508;-122.806;2023-09-08T02:27:40;100814.94;;;24.74;44.70
50852;BME280;43953;45.508;-122.806;2023-09-08T02:28:12;100819.31;;;24.75;44.86
50852;BME280;43953;45.508;-122.806;2023-09-08T02:28:44;100820.13;;;24.75;45.13
50852;BME280;43953;45.508;-122.806;2023-09-08T02:29:15;100816.56;;;24.75;44.56
50852;BME280;43953;45.508;-122.806;2023-09-08T02:29:47;100827.09;;;24.73;44.46
50852;BME280;43953;45.508;-122.806;2023-09-08T02:30:19;100823.19;;;24.74;45.59
50852;BME280;43953;45.508;-122.806;2023-09-08T02:30:50;100824.31;;;24.73;45.61
50852;BME280;43953;45.508;-122.806;2023-09-08T02:31:22;100832.28;;;24.74;45.54
50852;BME280;43953;45.508;-122.806;2023-09-08T02:31:54;100826.75;;;24.74;45.80
50852;BME280;43953;45.508;-122.806;2023-09-08T02:32:25;100820.44;;;24.74;45.16
50852;BME280;43953;45.508;-122.806;2023-09-08T02:32:57;100827.56;;;24.75;45.32
50852;BME280;43953;45.508;-122.806;2023-09-08T02:33:29;100816.56;;;24.75;45.54
50852;BME280;43953;45.508;-122.806;2023-09-08T02:34:00;100822.06;;;24.75;45.75
50852;BME280;43953;45.508;-122.806;2023-09-08T02:34:35;100825.63;;;24.75;46.17
50852;BME280;43953;45.508;-122.806;2023-09-08T02:35:10;100823.72;;;24.76;46.19
50852;BME280;43953;45.508;-122.806;2023-09-08T02:35:42;100824.53;;;24.77;46.53
50852;BME280;43953;45.508;-122.806;2023-09-08T02:36:14;100829.72;;;24.78;46.49
50852;BME280;43953;45.508;-122.806;2023-09-08T02:36:46;100822.28;;;24.79;46.52
50852;BME280;43953;45.508;-122.806;2023-09-08T02:37:18;100819.53;;;24.79;46.08
50852;BME280;43953;45.508;-122.806;2023-09-08T02:37:50;100825.88;;;24.79;46.55
50852;BME280;43953;45.508;-122.806;2023-09-08T02:38:22;100830.25;;;24.80;46.31
50852;BME280;43953;45.508;-122.806;2023-09-08T02:38:55;100829.13;;;24.81;46.33
50852;BME280;43953;45.508;-122.806;2023-09-08T02:39:27;100832.72;;;24.82;46.53
50852;BME280;43953;45.508;-122.806;2023-09-08T02:39:58;100825.75;;;24.84;46.79
50852;BME280;43953;45.508;-122.806;2023-09-08T02:40:30;100834.03;;;24.84;46.43
50852;BME280;43953;45.508;-122.806;2023-09-08T02:41:02;100834.56;;;24.86;46.38
50852;BME280;43953;45.508;-122.806;2023-09-08T02:41:34;100834.56;;;24.86;46.72
50852;BME280;43953;45.508;-122.806;2023-09-08T02:42:05;100838.94;;;24.87;46.54
50852;BME280;43953;45.508;-122.806;2023-09-08T02:42:37;100835.88;;;24.89;46.79
50852;BME280;43953;45.508;-122.806;2023-09-08T02:43:09;100837.81;;;24.88;46.96
50852;BME280;43953;45.508;-122.806;2023-09-08T02:43:40;100840.78;;;24.92;47.08
50852;BME280;43953;45.508;-122.806;2023-09-08T02:44:12;100834.47;;;24.91;46.65
50852;BME280;43953;45.508;-122.806;2023-09-08T02:44:44;100837.22;;;24.91;47.05
50852;BME280;43953;45.508;-122.806;2023-09-08T02:45:16;100844.34;;;24.92;46.81
50852;BME280;43953;45.508;-122.806;2023-09-08T02:45:47;100844.34;;;24.92;46.36
50852;BME280;43953;45.508;-122.806;2023-09-08T02:46:19;100843.53;;;24.92;46.53